FLUGWETTER MÜNCHEN AIRPORT

[source: ADDS]
METAR
EDDM 261420Z VRB03KT CAVOK 22/09 Q1020 NOSIG =
TAF
TAF EDDM 261100Z 2612/2718 07007KT CAVOK BECMG 2617/2619 VRB02KT BECMG 2705/2707 08008KT BECMG 2716/2718 08003KT =
SR / SS: 03:22 / 19:00 UTC (Tag 2017-05-26)

QR-Code dieser Seite

QR-Code dieser Seite